createdAt,value
2022-10-06T00:01:07.008Z,3.70
2022-10-06T00:04:10.071Z,4.97
2022-10-06T00:07:13.466Z,4.18
2022-10-06T00:10:16.589Z,3.90
2022-10-06T00:13:19.547Z,3.85
2022-10-06T00:16:23.972Z,3.57
2022-10-06T00:19:28.703Z,3.23
2022-10-06T00:22:39.997Z,3.88
2022-10-06T00:25:43.445Z,5.25
2022-10-06T00:28:51.058Z,7.60
2022-10-06T00:31:55.790Z,6.03
2022-10-06T00:35:00.131Z,7.37
2022-10-06T00:38:05.555Z,6.70
2022-10-06T00:41:11.494Z,4.30
2022-10-06T00:44:15.025Z,4.78
2022-10-06T00:47:20.289Z,4.37
2022-10-06T00:50:24.191Z,5.17
2022-10-06T00:53:29.964Z,4.50
2022-10-06T00:56:33.058Z,4.45
2022-10-06T00:59:38.075Z,4.40
2022-10-06T01:03:12.863Z,3.40
2022-10-06T01:06:15.966Z,5.23
2022-10-06T01:09:20.301Z,3.25
2022-10-06T01:12:25.166Z,2.80
2022-10-06T01:15:30.417Z,2.10
2022-10-06T01:18:35.715Z,3.60
2022-10-06T01:21:45.349Z,3.87
2022-10-06T01:24:51.207Z,2.50
2022-10-06T01:27:56.456Z,2.20
2022-10-06T01:31:03.632Z,1.70
2022-10-06T01:34:08.652Z,2.17
2022-10-06T01:37:12.528Z,1.87
2022-10-06T01:40:16.559Z,2.00
2022-10-06T01:43:21.926Z,3.88
2022-10-06T01:46:25.229Z,2.92
2022-10-06T01:49:28.145Z,3.30
2022-10-06T01:52:31.369Z,2.60
2022-10-06T01:55:35.839Z,2.65
2022-10-06T01:58:42.120Z,3.33
2022-10-06T02:01:46.760Z,2.60
2022-10-06T02:04:51.328Z,2.70
2022-10-06T02:07:54.934Z,5.60
2022-10-06T02:10:58.939Z,4.22
2022-10-06T02:14:05.382Z,3.25
2022-10-06T02:17:10.475Z,3.30
2022-10-06T02:20:14.464Z,3.30
2022-10-06T02:23:18.850Z,4.67
2022-10-06T02:26:22.460Z,4.20
2022-10-06T02:29:27.087Z,4.00
2022-10-06T02:32:40.778Z,2.53
2022-10-06T02:35:45.779Z,2.03
2022-10-06T02:38:49.802Z,4.60
2022-10-06T02:41:53.959Z,4.25
2022-10-06T02:44:59.472Z,2.65
2022-10-06T02:48:03.090Z,2.15
2022-10-06T02:51:09.623Z,2.00
2022-10-06T02:54:14.173Z,1.83
2022-10-06T02:57:18.049Z,2.58
2022-10-06T03:00:21.900Z,1.70
2022-10-06T03:03:25.538Z,2.30
2022-10-06T03:06:31.554Z,1.10
2022-10-06T03:09:45.451Z,4.40
2022-10-06T03:12:49.175Z,2.75
2022-10-06T03:15:52.915Z,3.28
2022-10-06T03:18:56.581Z,2.92
2022-10-06T03:21:59.691Z,2.60
2022-10-06T03:25:18.400Z,2.60
2022-10-06T03:28:21.479Z,4.88
2022-10-06T03:31:26.085Z,2.90
2022-10-06T03:34:29.421Z,9.75
2022-10-06T03:37:34.301Z,3.00
2022-10-06T03:40:37.860Z,1.80
2022-10-06T03:43:44.399Z,2.47
2022-10-06T03:46:48.697Z,5.50
2022-10-06T03:49:52.100Z,4.32
2022-10-06T03:52:55.057Z,1.90
2022-10-06T03:56:05.737Z,3.90
2022-10-06T03:59:11.837Z,1.88
2022-10-06T04:02:17.766Z,1.50
2022-10-06T04:05:22.382Z,1.13
2022-10-06T04:08:26.328Z,1.50
2022-10-06T04:11:33.158Z,1.57
2022-10-06T04:14:36.504Z,1.45
2022-10-06T04:17:41.179Z,1.73
2022-10-06T04:20:44.938Z,2.70
2022-10-06T04:23:48.482Z,2.77
2022-10-06T04:26:52.914Z,2.80
2022-10-06T04:29:59.342Z,1.67
2022-10-06T04:33:02.260Z,2.65
2022-10-06T04:36:08.209Z,3.10
2022-10-06T04:39:12.477Z,3.10
2022-10-06T04:42:19.746Z,2.23
2022-10-06T04:45:22.643Z,1.50
2022-10-06T04:48:28.236Z,5.07
2022-10-06T04:51:32.269Z,2.30
2022-10-06T04:54:36.762Z,4.70
2022-10-06T04:57:42.511Z,2.00
2022-10-06T05:00:45.375Z,1.50
2022-10-06T05:03:51.375Z,2.55
2022-10-06T05:06:54.297Z,2.72
2022-10-06T05:09:57.879Z,2.17
2022-10-06T05:13:04.807Z,2.37
2022-10-06T05:16:12.006Z,2.22
2022-10-06T05:19:16.054Z,1.80
2022-10-06T05:22:19.164Z,1.63
2022-10-06T05:25:22.165Z,2.93
2022-10-06T05:28:28.352Z,2.43
2022-10-06T05:31:35.656Z,2.10
2022-10-06T05:34:40.852Z,10.23
2022-10-06T05:37:44.539Z,2.05
2022-10-06T05:40:48.217Z,1.80
2022-10-06T05:43:53.417Z,1.40
2022-10-06T05:46:57.031Z,1.10
2022-10-06T05:50:00.600Z,1.95
2022-10-06T05:53:04.189Z,1.58
2022-10-06T05:56:09.418Z,1.70
2022-10-06T05:59:14.939Z,1.70
2022-10-06T06:02:19.054Z,1.00
2022-10-06T06:05:22.800Z,1.60
2022-10-06T06:08:27.264Z,1.98
2022-10-06T06:11:32.652Z,1.57
2022-10-06T06:14:55.196Z,1.60
2022-10-06T06:18:05.383Z,1.50
2022-10-06T06:21:11.008Z,1.42
2022-10-06T06:24:14.978Z,1.85
2022-10-06T06:27:19.017Z,1.40
2022-10-06T06:30:23.405Z,1.13
2022-10-06T06:33:27.952Z,1.30
2022-10-06T06:36:41.310Z,2.35
2022-10-06T06:39:47.967Z,2.33
2022-10-06T06:42:53.970Z,1.60
2022-10-06T06:46:07.049Z,1.67
2022-10-06T06:49:32.165Z,1.88
2022-10-06T06:52:40.112Z,2.22
2022-10-06T06:55:51.480Z,2.50
2022-10-06T06:58:58.753Z,3.00
2022-10-06T07:02:03.965Z,1.30
2022-10-06T07:05:12.532Z,2.15
2022-10-06T07:08:20.329Z,1.70
2022-10-06T07:11:26.025Z,1.50
2022-10-06T07:14:29.777Z,1.33
2022-10-06T07:17:52.320Z,2.07
2022-10-06T07:21:15.446Z,1.95
2022-10-06T07:24:38.630Z,1.80
2022-10-06T07:27:44.659Z,1.98
2022-10-06T07:30:51.480Z,2.30
2022-10-06T07:33:56.928Z,2.53
2022-10-06T07:37:04.076Z,3.50
2022-10-06T07:40:11.776Z,2.63
2022-10-06T07:43:15.382Z,2.13
2022-10-06T07:46:21.610Z,2.40
2022-10-06T07:49:34.072Z,1.50
2022-10-06T07:52:40.053Z,1.27
2022-10-06T07:55:46.980Z,2.05
2022-10-06T07:59:00.102Z,3.88
2022-10-06T08:02:03.857Z,2.73
2022-10-06T08:05:09.324Z,2.27
2022-10-06T08:08:15.410Z,1.77
2022-10-06T08:11:19.945Z,2.47
2022-10-06T08:14:25.152Z,2.90
2022-10-06T08:17:29.271Z,2.70
2022-10-06T08:20:33.264Z,2.13
2022-10-06T08:23:40.979Z,1.90
2022-10-06T08:26:44.906Z,1.88
2022-10-06T08:29:48.088Z,3.45
2022-10-06T08:32:51.988Z,5.27
2022-10-06T08:35:55.529Z,3.73
2022-10-06T08:38:59.256Z,4.00
2022-10-06T08:42:03.668Z,4.63
2022-10-06T08:45:15.179Z,2.85
2022-10-06T08:48:28.740Z,2.00
2022-10-06T08:51:51.209Z,2.40
2022-10-06T08:55:06.658Z,4.03
2022-10-06T08:58:23.759Z,5.72
2022-10-06T09:01:34.208Z,6.25
2022-10-06T09:04:38.200Z,7.77
2022-10-06T09:07:58.849Z,5.57
2022-10-06T09:11:26.627Z,3.25
2022-10-06T09:15:17.537Z,6.32
2022-10-06T09:22:20.747Z,5.63
2022-10-06T09:25:29.999Z,6.10
2022-10-06T09:28:34.152Z,6.20
2022-10-06T09:31:50.886Z,3.55
2022-10-06T09:35:03.201Z,5.20
2022-10-06T09:38:08.996Z,7.03
2022-10-06T09:41:14.351Z,10.40
2022-10-06T09:44:27.996Z,6.30
2022-10-06T09:47:45.581Z,7.28
2022-10-06T09:51:18.811Z,7.50
2022-10-06T09:54:22.528Z,11.77
2022-10-06T09:57:27.973Z,5.97
2022-10-06T10:00:46.687Z,5.90
2022-10-06T10:07:30.699Z,7.85
2022-10-06T10:10:36.223Z,9.43
2022-10-06T10:13:44.313Z,10.40
2022-10-06T10:16:53.111Z,14.15
2022-10-06T10:19:57.357Z,8.95
2022-10-06T10:23:05.692Z,8.13
2022-10-06T10:26:39.838Z,8.80
2022-10-06T10:30:02.774Z,12.63
2022-10-06T10:33:29.561Z,12.48
2022-10-06T10:36:45.761Z,11.32
2022-10-06T10:39:51.874Z,8.82
2022-10-06T10:43:12.000Z,11.00
2022-10-06T10:46:25.645Z,9.53
2022-10-06T10:49:32.624Z,11.32
2022-10-06T10:53:15.634Z,11.40
2022-10-06T10:56:22.817Z,11.82
2022-10-06T10:59:56.348Z,9.23
2022-10-06T11:03:02.051Z,5.43
2022-10-06T11:06:35.406Z,5.05
2022-10-06T11:09:48.622Z,6.15
2022-10-06T11:13:14.930Z,4.93
2022-10-06T11:16:35.200Z,2.73
2022-10-06T11:20:12.033Z,2.28
2022-10-06T11:23:41.609Z,2.80
2022-10-06T11:27:08.432Z,2.47
2022-10-06T11:30:20.306Z,4.30
2022-10-06T11:33:37.639Z,3.53
2022-10-06T11:36:57.031Z,4.13
2022-10-06T11:40:18.944Z,3.72
2022-10-06T11:43:45.176Z,4.60
2022-10-06T11:46:57.088Z,5.65
2022-10-06T11:50:00.182Z,4.93
2022-10-06T11:53:06.226Z,4.55
2022-10-06T11:56:18.916Z,4.93
2022-10-06T11:59:27.991Z,5.43
2022-10-06T12:02:31.654Z,4.82
2022-10-06T12:05:55.659Z,3.43
2022-10-06T12:08:58.021Z,4.23
2022-10-06T12:12:21.681Z,4.65
2022-10-06T12:19:39.917Z,4.25
2022-10-06T12:23:09.006Z,7.73
2022-10-06T12:26:27.996Z,8.05
2022-10-06T12:29:46.616Z,8.55
2022-10-06T12:33:01.037Z,11.32
2022-10-06T12:36:06.138Z,16.33
2022-10-06T12:39:25.314Z,15.40
2022-10-06T12:42:32.087Z,11.70
2022-10-06T12:45:36.597Z,12.45
2022-10-06T12:49:05.924Z,35.65
2022-10-06T12:52:45.041Z,40.88
2022-10-06T12:56:04.182Z,35.03
2022-10-06T12:59:23.895Z,16.85
2022-10-06T13:02:28.610Z,11.00
2022-10-06T13:05:33.863Z,11.98
2022-10-06T13:08:39.027Z,16.25
2022-10-06T13:11:45.466Z,16.10
2022-10-06T13:14:49.214Z,13.67
2022-10-06T13:17:56.813Z,14.68
2022-10-06T13:21:01.905Z,31.63
2022-10-06T13:24:06.624Z,34.50
2022-10-06T13:27:18.809Z,39.27
2022-10-06T13:30:23.235Z,32.33
2022-10-06T13:33:31.269Z,36.33
2022-10-06T13:36:47.537Z,32.30
2022-10-06T13:39:51.540Z,29.33
2022-10-06T13:42:57.185Z,23.83
2022-10-06T13:46:01.805Z,24.30
2022-10-06T13:49:23.023Z,25.10
2022-10-06T13:52:37.825Z,32.40
2022-10-06T13:55:41.442Z,39.92
2022-10-06T13:58:44.815Z,38.57
2022-10-06T14:01:48.583Z,35.72
2022-10-06T14:05:24.866Z,32.80
2022-10-06T14:08:28.767Z,30.63
2022-10-06T14:11:33.061Z,30.75
2022-10-06T14:14:36.907Z,26.33
2022-10-06T14:17:41.900Z,30.52
2022-10-06T14:20:48.216Z,25.55
2022-10-06T14:23:56.408Z,33.65
2022-10-06T14:27:05.761Z,32.83
2022-10-06T14:30:10.559Z,31.77
2022-10-06T14:33:13.865Z,24.35
2022-10-06T14:36:21.353Z,22.40
2022-10-06T14:39:24.967Z,20.92
2022-10-06T14:42:28.957Z,26.33
2022-10-06T14:45:36.501Z,35.10
2022-10-06T14:48:40.631Z,25.33
2022-10-06T14:51:45.475Z,23.38
2022-10-06T14:54:49.802Z,21.50
2022-10-06T14:57:54.799Z,18.40
2022-10-06T15:01:05.964Z,15.52
2022-10-06T15:04:14.963Z,13.88
2022-10-06T15:07:37.280Z,13.68
2022-10-06T15:10:40.496Z,12.03
2022-10-06T15:13:44.745Z,13.18
2022-10-06T15:16:48.116Z,13.80
2022-10-06T15:19:51.689Z,11.30
2022-10-06T15:22:55.136Z,11.43
2022-10-06T15:26:17.139Z,12.40
2022-10-06T15:29:21.240Z,12.98
2022-10-06T15:32:25.314Z,20.47
2022-10-06T15:35:29.224Z,30.42
2022-10-06T15:38:37.838Z,23.27
2022-10-06T15:41:43.433Z,18.90
2022-10-06T15:44:47.490Z,20.33
2022-10-06T15:47:53.370Z,17.00
2022-10-06T15:50:59.034Z,18.40
2022-10-06T15:54:02.705Z,18.17
2022-10-06T15:57:10.042Z,15.50
2022-10-06T16:00:14.136Z,16.05
2022-10-06T16:03:40.811Z,16.70
2022-10-06T16:06:50.524Z,25.30
2022-10-06T16:09:54.561Z,47.22
2022-10-06T16:12:58.188Z,66.00
2022-10-06T16:16:01.479Z,49.65
2022-10-06T16:19:05.097Z,48.87
2022-10-06T16:22:12.235Z,46.83
2022-10-06T16:25:15.195Z,79.00
2022-10-06T16:28:19.161Z,66.45
2022-10-06T16:31:23.741Z,49.23
2022-10-06T16:34:28.409Z,42.03
2022-10-06T16:37:32.125Z,45.42
2022-10-06T16:40:35.686Z,48.20
2022-10-06T16:43:41.532Z,39.60
2022-10-06T16:46:46.215Z,35.45
2022-10-06T16:49:49.187Z,30.33
2022-10-06T16:52:53.239Z,29.30
2022-10-06T16:55:56.759Z,37.17
2022-10-06T16:59:11.713Z,45.63
2022-10-06T17:02:15.298Z,41.03
2022-10-06T17:05:18.972Z,41.50
2022-10-06T17:08:25.981Z,49.45
2022-10-06T17:11:29.653Z,51.80
2022-10-06T17:14:35.451Z,45.53
2022-10-06T17:17:39.342Z,46.00
2022-10-06T17:20:42.819Z,49.95
2022-10-06T17:23:46.570Z,44.85
2022-10-06T17:26:51.252Z,45.27
2022-10-06T17:29:54.179Z,48.75
2022-10-06T17:32:57.911Z,53.38
2022-10-06T17:36:13.466Z,48.60
2022-10-06T17:39:18.844Z,48.95
2022-10-06T17:42:22.560Z,43.58
2022-10-06T17:45:26.280Z,36.05
2022-10-06T17:48:30.384Z,37.47
2022-10-06T17:51:33.976Z,34.42
2022-10-06T17:54:38.067Z,24.55
2022-10-06T17:57:41.005Z,21.43
2022-10-06T18:00:45.027Z,31.90
2022-10-06T18:03:48.948Z,32.05
2022-10-06T18:06:54.857Z,31.40
2022-10-06T18:10:17.532Z,27.77
2022-10-06T18:13:21.512Z,33.92
2022-10-06T18:16:28.321Z,37.08
2022-10-06T18:19:34.272Z,39.57
2022-10-06T18:22:38.155Z,31.58
2022-10-06T18:25:41.842Z,24.38
2022-10-06T18:28:48.226Z,22.63
2022-10-06T18:31:53.518Z,21.25
2022-10-06T18:38:21.148Z,23.48
2022-10-06T18:41:28.702Z,29.70
2022-10-06T18:44:50.694Z,30.17
2022-10-06T18:48:11.692Z,25.55
2022-10-06T18:51:15.354Z,25.83
2022-10-06T18:54:24.379Z,29.55
2022-10-06T18:57:28.085Z,38.03
2022-10-06T19:00:32.937Z,38.55
2022-10-06T19:03:36.693Z,39.38
2022-10-06T19:06:41.247Z,43.72
2022-10-06T19:09:46.838Z,42.45
2022-10-06T19:12:50.667Z,40.23
2022-10-06T19:15:53.813Z,40.42
2022-10-06T19:18:57.979Z,37.10
2022-10-06T19:22:03.357Z,38.78
2022-10-06T19:25:07.141Z,32.72
2022-10-06T19:28:10.841Z,28.67
2022-10-06T19:31:19.250Z,34.25
2022-10-06T19:34:23.341Z,26.03
2022-10-06T19:37:29.247Z,36.10
2022-10-06T19:40:33.243Z,32.47
2022-10-06T19:43:36.814Z,36.60
2022-10-06T19:46:40.751Z,35.08
2022-10-06T19:49:44.331Z,38.17
2022-10-06T19:52:47.691Z,44.25
2022-10-06T19:55:51.223Z,38.03
2022-10-06T19:58:55.175Z,36.80
2022-10-06T20:01:58.836Z,32.20
2022-10-06T20:05:02.143Z,34.72
2022-10-06T20:08:06.552Z,29.40
2022-10-06T20:11:16.079Z,27.35
2022-10-06T20:14:22.470Z,26.63
2022-10-06T20:17:25.939Z,22.60
2022-10-06T20:20:29.567Z,24.48
2022-10-06T20:23:33.878Z,22.10
2022-10-06T20:26:40.916Z,24.77
2022-10-06T20:29:44.880Z,22.00
2022-10-06T20:32:48.579Z,30.33
2022-10-06T20:35:51.818Z,26.00
2022-10-06T20:39:13.942Z,24.70
2022-10-06T20:42:18.656Z,25.20
2022-10-06T20:45:21.632Z,22.42
2022-10-06T20:48:30.416Z,27.13
2022-10-06T20:51:36.559Z,25.45
2022-10-06T20:54:40.741Z,23.13
2022-10-06T20:57:44.648Z,25.17
2022-10-06T21:00:48.673Z,26.63
2022-10-06T21:03:56.377Z,24.75
2022-10-06T21:07:00.480Z,24.10
2022-10-06T21:10:03.732Z,25.35
2022-10-06T21:13:07.741Z,28.40
2022-10-06T21:16:13.202Z,32.05
2022-10-06T21:19:20.076Z,27.90
2022-10-06T21:22:23.876Z,20.75
2022-10-06T21:25:27.997Z,19.95
2022-10-06T21:28:32.662Z,14.30
2022-10-06T21:31:36.676Z,16.70
2022-10-06T21:34:40.690Z,15.35
2022-10-06T21:37:45.473Z,14.00
2022-10-06T21:40:49.402Z,18.27
2022-10-06T21:43:57.394Z,15.25
2022-10-06T21:47:02.978Z,19.73
2022-10-06T21:50:07.381Z,16.80
2022-10-06T21:53:11.060Z,16.08
2022-10-06T21:56:15.177Z,15.65
2022-10-06T21:59:18.919Z,14.57
2022-10-06T22:02:22.985Z,15.48
2022-10-06T22:05:25.990Z,14.35
2022-10-06T22:08:32.840Z,14.55
2022-10-06T22:11:38.943Z,13.15
2022-10-06T22:14:42.444Z,31.85
2022-10-06T22:17:47.486Z,45.38
2022-10-06T22:20:51.483Z,36.77
2022-10-06T22:24:03.566Z,51.03
2022-10-06T22:27:07.833Z,42.92
2022-10-06T22:30:11.716Z,23.50
2022-10-06T22:33:15.030Z,20.95
2022-10-06T22:36:18.016Z,16.98
2022-10-06T22:39:22.020Z,19.67
2022-10-06T22:42:24.960Z,23.38
2022-10-06T22:45:28.910Z,19.38
2022-10-06T22:48:32.706Z,17.92
2022-10-06T22:51:36.374Z,14.43
2022-10-06T22:54:39.304Z,13.82
2022-10-06T22:57:43.387Z,15.20
2022-10-06T23:00:47.211Z,14.03
2022-10-06T23:03:51.285Z,16.13
2022-10-06T23:06:54.991Z,16.65
2022-10-06T23:09:57.915Z,12.80
2022-10-06T23:13:02.334Z,13.05
2022-10-06T23:16:08.581Z,15.65
2022-10-06T23:19:12.456Z,18.85
2022-10-06T23:22:16.004Z,13.80
2022-10-06T23:25:23.753Z,24.50
2022-10-06T23:28:30.092Z,23.88
2022-10-06T23:31:34.264Z,40.80
2022-10-06T23:34:37.269Z,26.83
2022-10-06T23:37:41.742Z,33.85
2022-10-06T23:40:45.755Z,36.88
2022-10-06T23:43:49.586Z,46.28
2022-10-06T23:46:52.476Z,52.42
2022-10-06T23:49:55.967Z,53.72
2022-10-06T23:52:59.016Z,52.57
2022-10-06T23:56:03.528Z,48.97
2022-10-06T23:59:06.659Z,48.15
